createdAt,value
2023-03-10T02:34:55.039Z,5.70
2023-03-10T03:56:38.592Z,7.17
2023-03-10T04:32:24.556Z,5.57
2023-03-10T04:48:13.016Z,4.73
2023-03-10T04:57:08.615Z,6.33
2023-03-10T05:01:35.108Z,5.20
2023-03-10T05:21:30.591Z,5.00
2023-03-10T05:41:38.099Z,4.03
2023-03-10T05:46:10.510Z,4.07
2023-03-10T06:22:23.429Z,3.97
2023-03-10T06:32:58.057Z,4.33
2023-03-10T06:58:59.625Z,3.40
2023-03-10T08:27:18.747Z,2.90
2023-03-10T10:52:27.528Z,2.33
2023-03-10T10:56:36.493Z,2.23
2023-03-10T11:00:55.290Z,1.60
2023-03-10T11:05:15.413Z,2.17
2023-03-10T11:09:25.842Z,2.40
2023-03-10T11:13:40.845Z,2.73
2023-03-10T11:17:55.297Z,2.13
2023-03-10T11:22:18.723Z,2.17
2023-03-10T11:26:44.887Z,1.97
2023-03-10T11:31:00.642Z,1.50
2023-03-10T11:35:20.962Z,2.40
2023-03-10T11:39:45.809Z,2.07
2023-03-10T11:44:00.652Z,1.80
2023-03-10T11:48:26.651Z,2.23
2023-03-10T11:52:36.215Z,1.80
2023-03-10T11:56:46.091Z,1.93
2023-03-10T12:00:57.325Z,1.60
2023-03-10T12:05:12.188Z,1.70
2023-03-10T12:09:37.454Z,1.77
2023-03-10T12:13:48.455Z,1.93
2023-03-10T12:17:59.132Z,2.03
2023-03-10T12:22:26.153Z,1.60
2023-03-10T12:27:01.350Z,1.17
2023-03-10T12:31:12.061Z,1.70
2023-03-10T12:35:47.440Z,2.23
2023-03-10T12:39:56.509Z,2.13
2023-03-10T12:44:27.095Z,2.07
2023-03-10T12:48:40.382Z,1.87
2023-03-10T12:52:55.792Z,2.33
2023-03-10T12:57:11.411Z,1.63
2023-03-10T13:01:24.089Z,1.20
2023-03-10T13:05:35.599Z,1.03
2023-03-10T13:09:49.442Z,1.20
2023-03-10T13:14:02.826Z,1.20
2023-03-10T13:18:17.514Z,1.80
2023-03-10T13:22:26.773Z,1.10
2023-03-10T13:26:37.187Z,1.00
2023-03-10T13:30:47.162Z,1.27
2023-03-10T13:34:57.370Z,1.53
2023-03-10T13:39:16.381Z,1.17
2023-03-10T13:43:41.824Z,1.20
2023-03-10T13:47:51.176Z,1.27
2023-03-10T13:52:01.477Z,1.20
2023-03-10T13:56:21.956Z,1.37
2023-03-10T14:00:33.065Z,1.33
2023-03-10T14:04:48.837Z,1.17
2023-03-10T14:08:58.183Z,1.37
2023-03-10T14:13:07.041Z,1.37
2023-03-10T14:17:34.067Z,1.00
2023-03-10T14:21:58.483Z,1.70
2023-03-10T14:26:15.943Z,1.57
2023-03-10T14:30:27.665Z,1.20
2023-03-10T14:34:38.140Z,1.67
2023-03-10T14:38:47.208Z,1.60
2023-03-10T14:43:00.694Z,1.37
2023-03-10T14:47:11.080Z,1.50
2023-03-10T14:51:34.392Z,1.30
2023-03-10T14:55:47.960Z,1.10
2023-03-10T14:59:56.782Z,2.10
2023-03-10T15:04:05.878Z,2.13
2023-03-10T15:08:16.215Z,1.90
2023-03-10T15:12:25.169Z,1.97
2023-03-10T15:16:33.991Z,1.50
2023-03-10T15:20:43.558Z,1.30
2023-03-10T15:24:53.832Z,1.20
2023-03-10T15:29:03.038Z,1.33
2023-03-10T15:33:12.121Z,1.10
2023-03-10T15:37:21.006Z,1.30
2023-03-10T15:41:34.710Z,1.00
2023-03-10T15:45:46.920Z,1.30
2023-03-10T15:49:55.802Z,1.57
2023-03-10T15:54:04.754Z,1.47
2023-03-10T15:58:15.237Z,1.30
2023-03-10T16:02:24.305Z,1.47
2023-03-10T16:06:33.576Z,1.10
2023-03-10T16:10:42.693Z,1.27
2023-03-10T16:14:53.122Z,1.13
2023-03-10T16:19:03.011Z,1.40
2023-03-10T16:23:11.910Z,1.33
2023-03-10T16:27:20.856Z,1.47
2023-03-10T16:31:31.342Z,1.20
2023-03-10T16:35:40.655Z,1.70
2023-03-10T16:39:49.534Z,1.10
2023-03-10T16:43:58.522Z,1.20
2023-03-10T16:48:09.211Z,1.40
2023-03-10T16:52:18.112Z,1.50
2023-03-10T16:56:28.001Z,1.60
2023-03-10T17:00:38.546Z,1.77
2023-03-10T17:04:49.408Z,2.10
2023-03-10T17:08:58.666Z,3.50
2023-03-10T17:13:07.521Z,3.20
2023-03-10T17:17:16.378Z,3.27
2023-03-10T17:21:28.827Z,2.80
2023-03-10T17:25:39.118Z,2.33
2023-03-10T17:29:48.145Z,1.80
2023-03-10T17:33:59.152Z,2.70
2023-03-10T17:38:09.551Z,2.77
2023-03-10T17:42:18.650Z,1.90
2023-03-10T17:46:29.644Z,2.70
2023-03-10T17:50:39.085Z,2.50
2023-03-10T17:54:49.587Z,2.93
2023-03-10T17:58:59.152Z,2.90
2023-03-10T18:03:08.267Z,2.50
2023-03-10T18:07:17.164Z,2.57
2023-03-10T18:11:28.147Z,3.30
2023-03-10T18:15:38.020Z,4.73
2023-03-10T18:19:47.009Z,3.80
2023-03-10T18:23:56.358Z,3.53
2023-03-10T18:28:08.232Z,2.83
2023-03-10T18:32:17.145Z,2.70
2023-03-10T18:36:26.892Z,2.90
2023-03-10T18:40:36.107Z,2.60
2023-03-10T18:44:48.391Z,2.40
2023-03-10T18:48:57.288Z,3.40
2023-03-10T18:53:06.339Z,3.13
2023-03-10T18:57:16.181Z,3.57
2023-03-10T19:01:27.270Z,3.33
2023-03-10T19:05:36.235Z,3.40
2023-03-10T19:09:45.426Z,3.07
2023-03-10T19:13:54.347Z,3.57
2023-03-10T19:18:04.763Z,3.33
2023-03-10T19:22:13.688Z,3.30
2023-03-10T19:26:22.615Z,3.83
2023-03-10T19:30:32.890Z,2.80
2023-03-10T19:34:43.244Z,3.23
2023-03-10T19:38:52.087Z,3.53
2023-03-10T19:43:01.034Z,2.90
2023-03-10T19:47:10.194Z,2.50
2023-03-10T19:51:25.142Z,3.00
2023-03-10T19:55:34.072Z,3.13
2023-03-10T19:59:43.561Z,3.77
2023-03-10T20:03:52.940Z,3.63
2023-03-10T20:08:03.413Z,3.13
2023-03-10T20:12:12.287Z,3.70
2023-03-10T20:16:24.403Z,3.77
2023-03-10T20:20:33.924Z,3.33
2023-03-10T20:24:44.278Z,3.67
2023-03-10T20:28:53.678Z,4.37
2023-03-10T20:33:03.145Z,3.50
2023-03-10T20:37:12.080Z,3.47
2023-03-10T20:41:23.740Z,3.40
2023-03-10T20:45:33.341Z,2.77
2023-03-10T20:49:42.222Z,3.20
2023-03-10T20:53:52.094Z,3.27
2023-03-10T20:58:03.371Z,3.03
2023-03-10T21:02:16.517Z,3.30
2023-03-10T21:06:27.467Z,3.10
2023-03-10T21:10:36.532Z,3.17
2023-03-10T21:14:47.179Z,3.00
2023-03-10T21:18:56.284Z,3.43
2023-03-10T21:23:05.261Z,3.50
2023-03-10T21:27:14.275Z,3.03
2023-03-10T21:31:25.280Z,3.60
2023-03-10T21:35:38.761Z,3.20
2023-03-10T21:39:48.394Z,3.10
2023-03-10T21:43:59.257Z,3.30
2023-03-10T21:48:11.815Z,3.23
2023-03-10T21:52:20.731Z,3.20
2023-03-10T21:56:30.266Z,3.40
2023-03-10T22:00:39.328Z,3.13
2023-03-10T22:04:49.841Z,3.07
2023-03-10T22:09:39.914Z,2.67
2023-03-10T22:13:53.733Z,2.70
2023-03-10T22:18:03.971Z,3.00
2023-03-10T22:22:14.565Z,2.77
2023-03-10T22:26:27.934Z,2.77
2023-03-10T22:30:48.699Z,2.40
2023-03-10T22:35:02.107Z,2.87
2023-03-10T22:39:14.672Z,2.80
2023-03-10T22:43:24.930Z,2.73
2023-03-10T22:47:35.090Z,2.47
2023-03-10T22:51:44.372Z,2.50
2023-03-10T22:55:55.057Z,2.50
2023-03-10T23:00:05.356Z,2.50
2023-03-10T23:04:15.647Z,2.00
2023-03-10T23:08:24.865Z,1.70
2023-03-10T23:12:35.334Z,1.97
2023-03-10T23:16:44.456Z,1.77
2023-03-10T23:20:53.603Z,1.67
2023-03-10T23:25:02.666Z,1.50
2023-03-10T23:29:13.973Z,1.50
2023-03-10T23:33:25.398Z,1.40
2023-03-10T23:37:34.887Z,1.10
2023-03-10T23:41:43.910Z,1.10
2023-03-10T23:45:54.510Z,1.40
2023-03-10T23:50:03.867Z,1.20
2023-03-10T23:54:13.283Z,0.80
2023-03-10T23:58:22.361Z,1.03
